• Join FlightAware (Why Join?)
  • Login
  • US Flag 
07:23AM EDT


 

Airport Tracker/Info


-or-


 

Live Flight TrackerFlight Track Log ✈ EJA951 ✈ 06-Nov-2013 ✈ KFLL - KIAH

Flight Track Log - Related Links

Times and Time Zones

All times are in EST time to prevent confusion due to time zone crossing. See the EJA951 flight status page for this flight to view local times or setup timezone preferences in your user account.

Time Position Orientation Groundspeed Altitude Reporting Facility
EST Latitude Longitude Course Direction KTS MPH feet Rate Location/Type
12:12PM 26.0728 -80.1411 86° East 165 190 800  Level Miami Center
12:13PM 26.0758 -80.0972 86° East 186 214 3,000 2,400 Climbing Miami Center
12:14PM 26.0875 -80.0353 78° East 230 265 5,000 960 Climbing Miami Center
12:15PM 26.1631 -80.0233 North 272 313 5,000  Level Miami Center
12:16PM 26.2247 -80.0758 323° Northwest 269 310 5,100 1,380 Climbing Miami Center
12:17PM 26.2353 -80.1597 278° West 242 278 8,000 1,920 Climbing Miami Center
12:18PM 26.2500 -80.2481 281° West 260 299 9,000 1,260 Climbing Miami Center
12:19PM 26.2586 -80.3294 277° West 290 334 10,600 1,320 Climbing Miami Center
12:20PM 26.2747 -80.4411 279° West 333 383 11,700 1,080 Climbing Miami Center
12:21PM 26.2908 -80.5433 280° West 360 414 12,800 1,200 Climbing Miami Center
12:22PM 26.3528 -80.6475 304° West 360 414 14,100 1,140 Climbing Miami Center
12:23PM 26.4092 -80.7372 305° West 386 444 15,100 1,140 Climbing Miami Center
12:24PM 26.4792 -80.8486 305° West 401 461 16,400 1,800 Climbing Miami Center
12:25PM 26.5453 -80.9461 307° West 407 468 18,800 1,800 Climbing Miami Center
12:26PM 26.6114 -81.0483 306° West 407 468 20,100 1,260 Climbing Miami Center
12:27PM 26.6711 -81.1456 305° West 420 483 21,400 1,200 Climbing Miami Center
12:28PM 26.7489 -81.2694 305° West 436 502 22,500 1,020 Climbing Miami Center
12:29PM 26.8186 -81.3792 305° West 436 502 23,500 1,080 Climbing Miami Center
12:30PM 26.8817 -81.5003 300° West 447 514 24,700 1,140 Climbing Miami Center
12:31PM 26.9442 -81.6261 299° West 453 521 25,800 1,020 Climbing Miami Center
12:32PM 26.9989 -81.7403 298° West 460 529 26,800 1,200 Climbing Miami Center
12:33PM 27.0672 -81.8783 299° West 465 535 28,300 1,200 Climbing Miami Center
12:34PM 27.1211 -82.0089 295° West 465 535 29,300 1,020 Climbing Miami Center
12:35PM 27.1578 -82.1506 286° West 471 542 30,400 1,020 Climbing Miami Center
12:36PM 27.1844 -82.2778 283° West 471 542 31,400 1,140 Climbing Miami Center
12:37PM 27.2208 -82.4172 286° West 471 542 32,700 1,440 Climbing Miami Center
12:38PM 27.2606 -82.5733 286° West 471 542 34,300 1,500 Climbing Miami Center
12:39PM 27.2925 -82.7125 285° West 471 542 35,800 1,440 Climbing Miami Center
12:40PM 27.3264 -82.8544 285° West 466 536 37,200 1,380 Climbing Miami Center
12:41PM 27.3603 -82.9917 286° West 472 543 38,600 1,200 Climbing Miami Center
12:42PM 27.3942 -83.1292 286° West 467 537 39,600 660 Climbing Miami Center
12:43PM 27.4275 -83.2689 285° West 462 532 40,000 180 Climbing Miami Center
12:44PM 27.4625 -83.4181 285° West 468 539 40,000  Level Miami Center
12:45PM 27.4975 -83.5650 285° West 481 554 40,000  Level Miami Center
12:46PM 27.5300 -83.7144 284° West 492 566 40,000  Level Miami Center
12:47PM 27.5686 -83.8664 286° West 497 572 40,000  Level Miami Center
12:48PM 27.5967 -84.0181 282° West 497 572 40,000  Level Miami Center
12:50PM 27.6628 -84.2772 286° West 510 587 40,000  Level Jacksonville Center
12:51PM 27.6986 -84.4275 285° West 505 581 40,000  Level Jacksonville Center
12:52PM 27.7319 -84.5781 284° West 500 575 40,000  Level Jacksonville Center
12:53PM 27.7631 -84.7617 281° West 495 570 40,000  Level Jacksonville Center
12:54PM 27.8028 -84.8914 289° West 502 578 40,000  Level Jacksonville Center
12:55PM 27.8378 -85.0422 285° West 502 578 40,000 120 Level Jacksonville Center
12:56PM 27.8706 -85.1953 284° West 496 571 40,300 600 Climbing Jacksonville Center
12:57PM 27.9075 -85.3394 286° West 488 562 41,300 960 Climbing Jacksonville Center
12:58PM 27.9528 -85.4814 290° West 481 554 42,300 840 Climbing Jacksonville Center
12:59PM 27.9936 -85.6236 288° West 476 548 43,000 300 Climbing Jacksonville Center
01:00PM 28.0364 -85.7706 288° West 484 557 43,000  Level Jacksonville Center
01:01PM 28.0808 -85.9200 289° West 496 571 43,000  Level Jacksonville Center
01:02PM 28.1253 -86.0672 289° West 502 578 43,000  Level Jacksonville Center
01:03PM 28.1694 -86.2192 288° West 512 589 43,000 -60 Level Jacksonville Center
01:04PM 28.2194 -86.3808 289° West 519 597 42,900  Descending Jacksonville Center
01:05PM 28.2614 -86.5239 288° West 513 590 43,000  Climbing Jacksonville Center
01:06PM 28.3050 -86.6761 288° West 513 590 43,000  Level Jacksonville Center
01:07PM 28.3400 -86.8308 284° West 511 588 43,000  Level Jacksonville Center
01:08PM 28.3767 -86.9925 284° West 511 588 43,000  Level Jacksonville Center
01:09PM 28.4086 -87.1397 284° West 511 588 43,000  Level Houston Center
01:10PM 28.4431 -87.2967 284° West 512 589 43,000  Level Houston Center
01:11PM 28.4778 -87.4561 284° West 518 596 43,000  Level Houston Center
01:12PM 28.5128 -87.6150 284° West 519 597 43,000  Level Houston Center
01:13PM 28.5525 -87.8056 283° West 517 595 43,000  Level Houston Center
01:14PM 28.5861 -87.9633 284° West 516 594 43,000  Level Houston Center
01:15PM 28.6167 -88.1100 283° West 517 595 43,000  Level Houston Center
01:16PM 28.6500 -88.2686 284° West 518 596 43,000  Level Houston Center
01:18PM 28.6894 -88.4606 283° West 520 598 43,000  Level Houston Center
01:19PM 28.7239 -88.6208 284° West 521 600 43,000  Level Houston Center
01:20PM 28.7564 -88.7833 283° West 524 603 43,000  Level Houston Center
01:21PM 28.7894 -88.9436 283° West 523 602 43,000  Level Houston Center
01:22PM 28.8222 -89.1039 283° West 519 597 43,000  Level Houston Center
01:23PM 28.8539 -89.2628 283° West 516 594 43,000  Level Houston Center
01:24PM 28.8922 -89.4544 283° West 515 593 43,000  Level Houston Center
01:25PM 28.9244 -89.6139 283° West 516 594 43,000  Level Houston Center
01:26PM 28.9556 -89.7744 283° West 516 594 43,000  Level Houston Center
01:27PM 28.9864 -89.9336 283° West 514 592 43,000  Level Houston Center
01:28PM 29.0178 -90.0925 283° West 512 589 43,000  Level Houston Center
01:29PM 29.0481 -90.2506 282° West 510 587 43,000  Level Houston Center
01:30PM 29.0786 -90.4089 282° West 510 587 43,000  Level Houston Center
01:31PM 29.1156 -90.5978 283° West 507 583 43,000  Level Houston Center
01:32PM 29.1458 -90.7575 282° West 511 588 43,000  Level Houston Center
01:33PM 29.1753 -90.9153 282° West 508 585 43,000  Level Houston Center
01:34PM 29.2050 -91.0731 282° West 509 586 43,000  Level Houston Center
01:35PM 29.2344 -91.2300 282° West 504 580 43,000  Level Houston Center
01:36PM 29.2631 -91.3875 282° West 504 580 43,000  Level Houston Center
01:37PM 29.2928 -91.5439 282° West 504 580 43,000  Level Houston Center
01:38PM 29.3250 -91.7269 281° West 506 582 43,000  Level Houston Center
01:39PM 29.3533 -91.8847 282° West 505 581 43,000  Level Houston Center
01:40PM 29.3822 -92.0414 282° West 503 579 43,000  Level Houston Center
01:41PM 29.4100 -92.1989 281° West 504 580 43,000  Level Houston Center
01:42PM 29.4383 -92.3536 282° West 499 574 43,000 -780 Level Houston Center
01:43PM 29.4614 -92.5397 278° West 492 566 41,400 -2,220 Descending Houston Center
01:44PM 29.4686 -92.6956 273° West 489 563 38,500 -2,880 Descending Houston Center
01:45PM 29.4736 -92.8514 272° West 490 564 35,500 -2,760 Descending Houston Center
01:46PM 29.4808 -93.0067 273° West 487 560 32,800 -2,640 Descending Houston Center
01:47PM 29.4878 -93.1614 273° West 486 559 30,200 -2,400 Descending Houston Center
01:48PM 29.4939 -93.3206 273° West 494 568 27,900 -2,280 Descending Houston Center
01:50PM 29.5003 -93.4836 273° West 506 582 25,600 -2,280 Descending Houston Center
01:51PM 29.5078 -93.6372 273° West 488 562 23,300 -2,340 Descending Houston Center
01:52PM 29.5133 -93.8122 272° West 462 532 20,800 -2,280 Descending Houston Center
01:52PM 29.5169 -93.9244 272° West 438 504 19,200 -2,040 Descending Houston Center
01:53PM 29.5189 -93.9542 274° West 451 519 18,700 -2,100 Descending Houston Center
01:53PM 29.5206 -94.0225 272° West 428 493 17,700 -1,980 Descending Houston Center
01:54PM 29.5247 -94.0903 274° West 437 503 16,700 -1,980 Descending Houston Center
01:54PM 29.5247 -94.1444 270° West 424 488 15,900 -1,860 Descending Houston Center
01:55PM 29.5289 -94.2222 274° West 423 487 14,800 -1,860 Descending Houston Center
01:55PM 29.5303 -94.2614 272° West 415 478 14,200 -1,800 Descending Houston Center
01:56PM 29.5358 -94.3419 275° West 390 449 13,000 -1,080 Descending Houston Center
01:56PM 29.5514 -94.3908 290° West 335 386 13,000  Level Houston Center
01:57PM 29.5750 -94.4417 298° West 347 399 13,000 -600 Level Houston Center
01:57PM 29.5894 -94.4775 295° West 333 383 12,500 -1,860 Descending Houston Center
01:58PM 29.6219 -94.5511 297° West 325 374 11,100 -1,800 Descending Houston Center
01:58PM 29.6303 -94.5708 296° West 318 366 10,700 -1,080 Descending Houston Center
01:59PM 29.6922 -94.5953 341° North 326 375 10,000 -660 Descending Houston Center
01:59PM 29.7228 -94.5925 North 333 383 10,000 -900 Level Houston Center
02:00PM 29.7803 -94.5842 North 320 368 9,100 -1,560 Descending Houston Center
02:00PM 29.8136 -94.5786 North 297 342 8,300 -1,680 Descending Houston Center
02:01PM 29.8600 -94.5728 North 295 339 7,400 -1,740 Descending Houston Center
02:01PM 29.8883 -94.5689 North 286 329 6,700 -1,380 Descending Houston Center
02:02PM 29.9194 -94.6067 314° West 275 316 6,000 -900 Descending Houston Center
02:02PM 29.9300 -94.6286 299° West 254 292 5,900 -780 Descending Houston Center
02:03PM 29.9503 -94.6772 296° West 250 288 5,200 -1,140 Descending Houston Center
02:03PM 29.9578 -94.7000 291° West 243 280 4,800 -1,620 Descending Houston Center
02:04PM 29.9803 -94.7792 288° West 254 292 3,400 -960 Descending Houston Center
02:05PM 29.9789 -94.8464 269° West 250 288 3,000 -420 Descending Houston Center
02:05PM 29.9775 -94.8592 263° West 246 283 3,000 -600 Level Houston Center
02:06PM 29.9778 -94.9242 270° West 245 282 2,400 -720 Descending Houston Center
02:06PM 29.9767 -94.9389 265° West 242 278 2,300 -420 Descending Houston Center
02:07PM 29.9783 -94.9997 272° West 242 278 2,000 -300 Descending Houston Center
02:07PM 29.9781 -95.0231 269° West 235 270 2,000  Level Houston Center
02:08PM 29.9778 -95.0858 270° West 179 206 2,000  Level Houston Center
02:09PM 29.9786 -95.1392 271° West 201 231 2,000  Level Houston Center
02:09PM 29.9772 -95.1486 260° West 188 216 2,000 -120 Level Houston Center
02:10PM 29.9789 -95.1947 272° West 186 214 1,900 -120 Descending Houston Center
02:10PM 29.9775 -95.1944 170° South 145 167 1,900 -720 Level Houston Center
02:11PM 29.9778 -95.2367 270° West 158 182 1,200 -780 Descending Houston Center
02:11PM 29.9778 -95.2450 270° West 125 144 1,100 -720 Descending Houston Center
02:12PM 29.9783 -95.2772 271° West 136 157 500 -720 Descending Houston Center
02:12PM 29.9781 -95.2933 269° West 143 165 300 -1,200 Descending Houston Center
02:14PM 29.9833 -95.3333 311° West  Level FlightAware Approximate
02:21PM 29.9844 -95.3414 311° West  Level Estimated